createdAt,value
2022-08-30T00:00:10.678Z,15.65
2022-08-30T00:01:14.224Z,15.62
2022-08-30T00:02:10.792Z,15.60
2022-08-30T00:03:10.838Z,15.57
2022-08-30T00:04:10.642Z,15.56
2022-08-30T00:05:10.648Z,15.54
2022-08-30T00:06:10.619Z,15.51
2022-08-30T00:07:10.616Z,15.49
2022-08-30T00:08:10.601Z,15.49
2022-08-30T00:09:10.593Z,15.47
2022-08-30T00:10:10.610Z,15.44
2022-08-30T00:11:10.599Z,15.43
2022-08-30T00:12:10.556Z,15.38
2022-08-30T00:13:10.542Z,15.35
2022-08-30T00:14:10.567Z,15.34
2022-08-30T00:15:10.520Z,15.31
2022-08-30T00:16:10.619Z,15.28
2022-08-30T00:17:10.505Z,15.27
2022-08-30T00:18:10.493Z,15.27
2022-08-30T00:19:10.505Z,15.25
2022-08-30T00:20:10.541Z,15.21
2022-08-30T00:21:10.461Z,15.19
2022-08-30T00:22:10.451Z,15.16
2022-08-30T00:23:10.438Z,15.16
2022-08-30T00:24:10.425Z,15.13
2022-08-30T00:25:10.421Z,15.11
2022-08-30T00:26:10.401Z,15.10
2022-08-30T00:27:10.438Z,15.06
2022-08-30T00:28:10.384Z,15.06
2022-08-30T00:29:10.415Z,15.02
2022-08-30T00:30:10.357Z,15.02
2022-08-30T00:31:10.466Z,15.02
2022-08-30T00:32:10.343Z,15.01
2022-08-30T00:33:10.310Z,15.02
2022-08-30T00:34:10.321Z,15.02
2022-08-30T00:35:10.311Z,15.02
2022-08-30T00:36:10.277Z,15.01
2022-08-30T00:37:10.278Z,14.98
2022-08-30T00:38:10.265Z,14.98
2022-08-30T00:39:10.262Z,14.95
2022-08-30T00:40:10.300Z,14.92
2022-08-30T00:41:10.223Z,14.91
2022-08-30T00:42:10.224Z,14.88
2022-08-30T00:43:10.350Z,14.83
2022-08-30T00:44:10.191Z,14.81
2022-08-30T00:45:10.200Z,14.80
2022-08-30T00:46:10.430Z,14.77
2022-08-30T00:47:10.205Z,14.72
2022-08-30T00:48:10.186Z,14.69
2022-08-30T00:49:10.143Z,14.65
2022-08-30T00:50:10.133Z,14.61
2022-08-30T00:51:10.130Z,14.61
2022-08-30T00:52:10.122Z,14.61
2022-08-30T00:53:10.154Z,14.58
2022-08-30T00:54:10.083Z,14.57
2022-08-30T00:55:10.074Z,14.54
2022-08-30T00:56:10.070Z,14.51
2022-08-30T00:57:10.053Z,14.51
2022-08-30T00:58:10.313Z,14.47
2022-08-30T00:59:10.033Z,14.47
2022-08-30T01:00:10.049Z,14.45
2022-08-30T01:01:10.076Z,14.43
2022-08-30T01:02:10.055Z,14.42
2022-08-30T01:03:10.032Z,14.39
2022-08-30T01:04:09.993Z,14.36
2022-08-30T01:05:09.964Z,14.36
2022-08-30T01:06:09.960Z,14.35
2022-08-30T01:07:09.948Z,14.35
2022-08-30T01:08:09.937Z,14.32
2022-08-30T01:09:09.918Z,14.29
2022-08-30T01:10:09.895Z,14.28
2022-08-30T01:11:09.901Z,14.28
2022-08-30T01:12:09.899Z,14.22
2022-08-30T01:13:09.888Z,14.22
2022-08-30T01:14:09.865Z,14.22
2022-08-30T01:15:09.836Z,14.27
2022-08-30T01:16:09.911Z,14.29
2022-08-30T01:17:09.828Z,14.29
2022-08-30T01:18:13.350Z,14.29
2022-08-30T01:19:13.227Z,14.32
2022-08-30T01:20:09.881Z,14.27
2022-08-30T01:21:09.788Z,14.28
2022-08-30T01:22:09.799Z,14.25
2022-08-30T01:23:09.812Z,14.24
2022-08-30T01:24:09.776Z,14.22
2022-08-30T01:25:09.742Z,14.20
2022-08-30T01:26:09.744Z,14.15
2022-08-30T01:27:09.739Z,14.12
2022-08-30T01:28:09.728Z,14.07
2022-08-30T01:29:09.752Z,14.04
2022-08-30T01:30:09.677Z,14.00
2022-08-30T01:31:09.761Z,13.97
2022-08-30T01:32:09.665Z,13.92
2022-08-30T01:33:09.722Z,13.89
2022-08-30T01:34:09.647Z,13.87
2022-08-30T01:35:09.638Z,13.87
2022-08-30T01:36:09.608Z,13.85
2022-08-30T01:37:09.620Z,13.87
2022-08-30T01:38:09.591Z,13.87
2022-08-30T01:39:09.592Z,13.87
2022-08-30T01:40:09.627Z,13.88
2022-08-30T01:41:09.589Z,13.87
2022-08-30T01:42:09.550Z,13.84
2022-08-30T01:43:09.603Z,13.82
2022-08-30T01:44:09.586Z,13.81
2022-08-30T01:45:09.540Z,13.77
2022-08-30T01:46:09.548Z,13.73
2022-08-30T01:47:09.511Z,13.70
2022-08-30T01:48:09.497Z,13.66
2022-08-30T01:49:09.478Z,13.67
2022-08-30T01:50:09.470Z,13.64
2022-08-30T01:51:09.467Z,13.63
2022-08-30T01:52:09.447Z,13.60
2022-08-30T01:53:09.458Z,13.57
2022-08-30T01:54:09.429Z,13.55
2022-08-30T01:55:09.410Z,13.52
2022-08-30T01:56:09.401Z,13.52
2022-08-30T01:57:09.397Z,13.51
2022-08-30T01:58:09.398Z,13.49
2022-08-30T01:59:09.384Z,13.48
2022-08-30T02:00:12.758Z,13.44
2022-08-30T02:01:09.420Z,13.41
2022-08-30T02:02:09.501Z,13.39
2022-08-30T02:03:09.394Z,13.32
2022-08-30T02:04:09.401Z,13.29
2022-08-30T02:05:09.331Z,13.26
2022-08-30T02:06:09.292Z,13.25
2022-08-30T02:07:09.284Z,13.22
2022-08-30T02:08:09.271Z,13.19
2022-08-30T02:09:09.250Z,13.17
2022-08-30T02:10:09.271Z,13.15
2022-08-30T02:11:09.272Z,13.14
2022-08-30T02:12:09.244Z,13.12
2022-08-30T02:13:09.247Z,13.15
2022-08-30T02:14:09.230Z,13.19
2022-08-30T02:15:09.207Z,13.15
2022-08-30T02:16:09.177Z,13.17
2022-08-30T02:17:09.184Z,13.14
2022-08-30T02:18:09.152Z,13.14
2022-08-30T02:19:09.161Z,13.14
2022-08-30T02:20:09.153Z,13.10
2022-08-30T02:21:09.124Z,13.10
2022-08-30T02:22:09.115Z,13.08
2022-08-30T02:23:09.121Z,13.05
2022-08-30T02:24:09.102Z,13.04
2022-08-30T02:25:11.246Z,13.03
2022-08-30T02:26:10.095Z,13.03
2022-08-30T02:27:09.071Z,13.00
2022-08-30T02:28:09.052Z,12.97
2022-08-30T02:29:09.073Z,12.96
2022-08-30T02:30:09.045Z,12.93
2022-08-30T02:31:09.318Z,12.93
2022-08-30T02:32:09.033Z,12.93
2022-08-30T02:33:09.048Z,12.89
2022-08-30T02:34:09.012Z,12.86
2022-08-30T02:35:09.025Z,12.86
2022-08-30T02:36:08.970Z,12.85
2022-08-30T02:37:08.961Z,12.82
2022-08-30T02:38:08.953Z,12.83
2022-08-30T02:39:08.933Z,12.79
2022-08-30T02:40:08.991Z,12.75
2022-08-30T02:41:08.921Z,12.75
2022-08-30T02:42:08.907Z,12.78
2022-08-30T02:43:08.933Z,12.85
2022-08-30T02:44:08.869Z,12.86
2022-08-30T02:45:08.870Z,12.87
2022-08-30T02:46:08.908Z,12.85
2022-08-30T02:47:08.872Z,12.83
2022-08-30T02:48:08.833Z,12.82
2022-08-30T02:49:32.196Z,12.85
2022-08-30T02:50:09.814Z,12.86
2022-08-30T02:51:09.320Z,12.85
2022-08-30T02:52:08.894Z,12.79
2022-08-30T02:53:08.889Z,12.77
2022-08-30T02:54:08.785Z,12.77
2022-08-30T02:55:08.761Z,12.74
2022-08-30T02:56:08.803Z,12.72
2022-08-30T02:57:08.783Z,12.71
2022-08-30T02:58:09.743Z,12.67
2022-08-30T02:59:08.782Z,12.70
2022-08-30T03:00:08.722Z,12.67
2022-08-30T03:01:08.736Z,12.70
2022-08-30T03:02:08.910Z,12.68
2022-08-30T03:03:08.788Z,12.68
2022-08-30T03:04:08.686Z,12.67
2022-08-30T03:05:08.677Z,12.65
2022-08-30T03:06:08.643Z,12.67
2022-08-30T03:07:08.637Z,12.65
2022-08-30T03:08:08.631Z,12.67
2022-08-30T03:09:08.647Z,12.64
2022-08-30T03:10:08.681Z,12.64
2022-08-30T03:11:08.594Z,12.64
2022-08-30T03:12:08.640Z,12.67
2022-08-30T03:13:08.556Z,12.65
2022-08-30T03:14:08.548Z,12.67
2022-08-30T03:15:08.547Z,12.67
2022-08-30T03:16:08.560Z,12.67
2022-08-30T03:17:12.999Z,12.67
2022-08-30T03:18:09.495Z,12.68
2022-08-30T03:19:08.508Z,12.68
2022-08-30T03:20:08.484Z,12.67
2022-08-30T03:21:08.475Z,12.68
2022-08-30T03:22:08.461Z,12.65
2022-08-30T03:23:08.463Z,12.68
2022-08-30T03:24:08.443Z,12.68
2022-08-30T03:25:08.459Z,12.68
2022-08-30T03:26:08.415Z,12.65
2022-08-30T03:27:08.406Z,12.67
2022-08-30T03:28:08.412Z,12.67
2022-08-30T03:29:08.384Z,12.65
2022-08-30T03:30:08.385Z,12.65
2022-08-30T03:31:08.386Z,12.65
2022-08-30T03:32:08.414Z,12.60
2022-08-30T03:33:08.454Z,12.60
2022-08-30T03:34:08.500Z,12.59
2022-08-30T03:35:08.418Z,12.56
2022-08-30T03:36:08.316Z,12.56
2022-08-30T03:37:08.317Z,12.56
2022-08-30T03:38:08.279Z,12.54
2022-08-30T03:39:08.306Z,12.52
2022-08-30T03:40:09.508Z,12.50
2022-08-30T03:41:08.274Z,12.52
2022-08-30T03:42:08.278Z,12.49
2022-08-30T03:43:08.364Z,12.49
2022-08-30T03:44:08.292Z,12.47
2022-08-30T03:45:08.236Z,12.45
2022-08-30T03:46:08.232Z,12.49
2022-08-30T03:47:08.199Z,12.49
2022-08-30T03:48:08.195Z,12.49
2022-08-30T03:49:08.196Z,12.49
2022-08-30T03:50:08.182Z,12.56
2022-08-30T03:51:08.194Z,12.59
2022-08-30T03:52:08.144Z,12.64
2022-08-30T03:53:49.191Z,12.64
2022-08-30T03:54:20.191Z,12.62
2022-08-30T03:55:08.276Z,12.62
2022-08-30T03:56:08.224Z,12.60
2022-08-30T03:57:08.221Z,12.57
2022-08-30T03:58:09.114Z,12.56
2022-08-30T03:59:08.264Z,12.54
2022-08-30T04:00:08.074Z,12.54
2022-08-30T04:01:08.144Z,12.53
2022-08-30T04:02:08.152Z,12.50
2022-08-30T04:03:08.052Z,12.52
2022-08-30T04:04:08.138Z,12.53
2022-08-30T04:05:08.072Z,12.52
2022-08-30T04:06:08.016Z,12.52
2022-08-30T04:07:08.006Z,12.52
2022-08-30T04:08:07.988Z,12.52
2022-08-30T04:09:07.958Z,12.53
2022-08-30T04:10:08.005Z,12.52
2022-08-30T04:11:07.971Z,12.54
2022-08-30T04:12:07.922Z,12.57
2022-08-30T04:13:07.934Z,12.59
2022-08-30T04:14:07.915Z,12.60
2022-08-30T04:15:07.919Z,12.62
2022-08-30T04:16:07.946Z,12.62
2022-08-30T04:17:07.901Z,12.64
2022-08-30T04:18:07.883Z,12.64
2022-08-30T04:19:07.856Z,12.64
2022-08-30T04:20:07.865Z,12.67
2022-08-30T04:21:10.354Z,12.67
2022-08-30T04:22:08.855Z,12.68
2022-08-30T04:23:07.822Z,12.72
2022-08-30T04:24:07.831Z,12.70
2022-08-30T04:25:07.797Z,12.74
2022-08-30T04:26:08.769Z,12.78
2022-08-30T04:27:07.769Z,12.78
2022-08-30T04:28:07.799Z,12.83
2022-08-30T04:29:07.748Z,12.85
2022-08-30T04:30:07.736Z,12.87
2022-08-30T04:31:07.797Z,12.89
2022-08-30T04:32:07.808Z,12.89
2022-08-30T04:33:07.719Z,12.87
2022-08-30T04:34:07.711Z,12.86
2022-08-30T04:35:07.737Z,12.86
2022-08-30T04:36:07.667Z,12.87
2022-08-30T04:37:09.779Z,12.90
2022-08-30T04:38:07.655Z,12.90
2022-08-30T04:39:07.643Z,12.92
2022-08-30T04:40:07.661Z,12.93
2022-08-30T04:41:07.614Z,12.93
2022-08-30T04:42:07.635Z,12.93
2022-08-30T04:43:07.587Z,12.95
2022-08-30T04:44:07.602Z,12.96
2022-08-30T04:45:07.583Z,13.00
2022-08-30T04:46:07.625Z,13.03
2022-08-30T04:47:07.546Z,13.07
2022-08-30T04:48:07.525Z,13.07
2022-08-30T04:49:07.526Z,13.12
2022-08-30T04:50:07.538Z,13.12
2022-08-30T04:51:07.495Z,13.14
2022-08-30T04:52:07.527Z,13.22
2022-08-30T04:53:07.487Z,13.25
2022-08-30T04:54:07.498Z,13.26
2022-08-30T04:55:07.474Z,13.30
2022-08-30T04:56:07.505Z,13.33
2022-08-30T04:57:07.474Z,13.38
2022-08-30T04:58:07.428Z,13.45
2022-08-30T04:59:07.429Z,13.49
2022-08-30T05:00:07.418Z,13.55
2022-08-30T05:01:07.451Z,13.60
2022-08-30T05:02:07.420Z,13.62
2022-08-30T05:03:07.352Z,13.67
2022-08-30T05:04:07.358Z,13.69
2022-08-30T05:05:07.356Z,13.73
2022-08-30T05:06:07.548Z,13.75
2022-08-30T05:07:07.318Z,13.78
2022-08-30T05:08:07.328Z,13.79
2022-08-30T05:09:07.349Z,13.84
2022-08-30T05:10:11.088Z,13.87
2022-08-30T05:11:07.292Z,13.88
2022-08-30T05:12:07.257Z,13.92
2022-08-30T05:13:07.243Z,13.95
2022-08-30T05:14:07.279Z,13.99
2022-08-30T05:15:07.245Z,14.00
2022-08-30T05:16:07.266Z,14.03
2022-08-30T05:17:07.259Z,14.04
2022-08-30T05:18:07.244Z,14.07
2022-08-30T05:19:07.195Z,14.09
2022-08-30T05:20:07.185Z,14.14
2022-08-30T05:21:07.197Z,14.17
2022-08-30T05:22:07.159Z,14.21
2022-08-30T05:23:07.179Z,14.24
2022-08-30T05:24:07.151Z,14.28
2022-08-30T05:25:07.207Z,14.32
2022-08-30T05:26:07.128Z,14.36
2022-08-30T05:27:07.099Z,14.39
2022-08-30T05:28:07.104Z,14.42
2022-08-30T05:29:07.117Z,14.45
2022-08-30T05:30:07.072Z,14.50
2022-08-30T05:31:07.112Z,14.51
2022-08-30T05:32:08.069Z,14.55
2022-08-30T05:33:07.047Z,14.57
2022-08-30T05:34:07.057Z,14.60
2022-08-30T05:35:07.063Z,14.62
2022-08-30T05:36:06.998Z,14.65
2022-08-30T05:37:07.055Z,14.69
2022-08-30T05:38:07.021Z,14.70
2022-08-30T05:39:07.003Z,14.75
2022-08-30T05:40:11.203Z,14.78
2022-08-30T05:41:10.593Z,14.81
2022-08-30T05:42:06.955Z,14.84
2022-08-30T05:43:07.113Z,14.88
2022-08-30T05:44:06.932Z,14.91
2022-08-30T05:45:06.918Z,14.94
2022-08-30T05:46:06.895Z,14.98
2022-08-30T05:47:06.890Z,15.01
2022-08-30T05:48:06.924Z,15.06
2022-08-30T05:49:06.906Z,15.10
2022-08-30T05:50:06.879Z,15.13
2022-08-30T05:51:06.866Z,15.16
2022-08-30T05:52:06.844Z,15.19
2022-08-30T05:53:06.848Z,15.17
2022-08-30T05:54:07.474Z,15.17
2022-08-30T05:55:07.440Z,15.21
2022-08-30T05:56:06.871Z,15.27
2022-08-30T05:57:06.808Z,15.31
2022-08-30T05:58:06.763Z,15.34
2022-08-30T05:59:06.764Z,15.35
2022-08-30T06:00:06.812Z,15.41
2022-08-30T06:01:06.761Z,15.41
2022-08-30T06:02:06.791Z,15.46
2022-08-30T06:03:06.808Z,15.50
2022-08-30T06:04:06.704Z,15.51
2022-08-30T06:05:06.692Z,15.53
2022-08-30T06:06:06.704Z,15.54
2022-08-30T06:07:07.341Z,15.56
2022-08-30T06:08:06.872Z,15.53
2022-08-30T06:09:06.671Z,15.56
2022-08-30T06:10:06.659Z,15.60
2022-08-30T06:11:06.650Z,15.67
2022-08-30T06:12:06.688Z,15.69
2022-08-30T06:13:06.622Z,15.71
2022-08-30T06:14:06.595Z,15.76
2022-08-30T06:15:06.598Z,15.78
2022-08-30T06:16:06.668Z,15.80
2022-08-30T06:17:06.566Z,15.84
2022-08-30T06:18:06.586Z,15.89
2022-08-30T06:19:06.540Z,15.87
2022-08-30T06:20:06.552Z,15.92
2022-08-30T06:21:06.508Z,15.96
2022-08-30T06:22:06.557Z,16.04
2022-08-30T06:23:06.510Z,16.02
2022-08-30T06:24:06.481Z,16.05
2022-08-30T06:25:06.473Z,16.08
2022-08-30T06:26:06.590Z,16.09
2022-08-30T06:27:06.461Z,16.14
2022-08-30T06:28:06.505Z,16.20
2022-08-30T06:29:06.479Z,16.21
2022-08-30T06:30:06.489Z,16.27
2022-08-30T06:31:06.463Z,16.31
2022-08-30T06:32:06.436Z,16.33
2022-08-30T06:33:06.392Z,16.35
2022-08-30T06:34:06.391Z,16.38
2022-08-30T06:35:06.414Z,16.46
2022-08-30T06:36:06.863Z,16.53
2022-08-30T06:37:06.443Z,16.61
2022-08-30T06:38:06.357Z,16.68
2022-08-30T06:39:06.388Z,16.76
2022-08-30T06:40:06.325Z,16.76
2022-08-30T06:41:06.387Z,16.73
2022-08-30T06:42:06.311Z,16.70
2022-08-30T06:43:06.292Z,16.71
2022-08-30T06:44:06.253Z,16.66
2022-08-30T06:45:10.314Z,16.63
2022-08-30T06:46:06.265Z,16.58
2022-08-30T06:47:06.267Z,16.58
2022-08-30T06:48:06.223Z,16.57
2022-08-30T06:49:06.230Z,16.60
2022-08-30T06:50:06.221Z,16.60
2022-08-30T06:51:06.564Z,16.61
2022-08-30T06:52:06.177Z,16.70
2022-08-30T06:53:06.218Z,16.75
2022-08-30T06:54:06.160Z,16.81
2022-08-30T06:55:06.121Z,16.85
2022-08-30T06:56:06.575Z,16.89
2022-08-30T06:57:06.128Z,16.91
2022-08-30T06:58:06.109Z,16.86
2022-08-30T06:59:06.095Z,16.96
2022-08-30T07:00:06.087Z,17.00
2022-08-30T07:01:06.068Z,17.00
2022-08-30T07:02:06.105Z,17.04
2022-08-30T07:03:06.094Z,17.11
2022-08-30T07:04:06.111Z,17.14
2022-08-30T07:05:06.027Z,17.21
2022-08-30T07:06:06.038Z,17.30
2022-08-30T07:07:06.005Z,17.36
2022-08-30T07:08:06.016Z,17.41
2022-08-30T07:09:06.068Z,17.44
2022-08-30T07:10:05.988Z,17.52
2022-08-30T07:11:05.988Z,17.55
2022-08-30T07:12:05.949Z,17.59
2022-08-30T07:13:06.002Z,17.64
2022-08-30T07:14:05.942Z,17.71
2022-08-30T07:15:05.946Z,17.75
2022-08-30T07:16:05.960Z,17.81
2022-08-30T07:17:05.945Z,17.87
2022-08-30T07:18:05.881Z,17.93
2022-08-30T07:19:05.915Z,17.95
2022-08-30T07:20:05.884Z,17.97
2022-08-30T07:21:05.859Z,17.97
2022-08-30T07:22:05.852Z,18.00
2022-08-30T07:23:05.832Z,17.99
2022-08-30T07:24:06.102Z,18.03
2022-08-30T07:25:05.827Z,18.10
2022-08-30T07:26:05.830Z,18.12
2022-08-30T07:27:05.801Z,18.10
2022-08-30T07:28:05.768Z,18.14
2022-08-30T07:29:05.799Z,18.15
2022-08-30T07:30:05.764Z,18.18
2022-08-30T07:31:05.740Z,18.30
2022-08-30T07:32:05.731Z,18.39
2022-08-30T07:33:05.772Z,18.45
2022-08-30T07:34:05.811Z,18.54
2022-08-30T07:35:05.706Z,18.63
2022-08-30T07:36:05.696Z,18.65
2022-08-30T07:37:05.736Z,18.72
2022-08-30T07:38:05.664Z,18.73
2022-08-30T07:39:05.674Z,18.78
2022-08-30T07:40:05.764Z,18.85
2022-08-30T07:41:05.632Z,18.94
2022-08-30T07:42:05.633Z,19.00
2022-08-30T07:43:05.634Z,19.10
2022-08-30T07:44:05.624Z,19.19
2022-08-30T07:45:05.608Z,19.25
2022-08-30T07:46:05.619Z,19.23
2022-08-30T07:47:05.574Z,19.19
2022-08-30T07:48:05.554Z,19.19
2022-08-30T07:49:05.611Z,19.11
2022-08-30T07:50:06.534Z,19.02
2022-08-30T07:51:05.646Z,18.99
2022-08-30T07:52:05.539Z,18.98
2022-08-30T07:53:07.920Z,18.99
2022-08-30T07:54:06.509Z,19.00
2022-08-30T07:55:05.497Z,19.04
2022-08-30T07:56:05.458Z,18.99
2022-08-30T07:57:05.696Z,18.94
2022-08-30T07:58:05.459Z,18.95
2022-08-30T07:59:05.471Z,18.99
2022-08-30T08:00:05.459Z,19.00
2022-08-30T08:01:05.425Z,18.98
2022-08-30T08:02:05.466Z,18.78
2022-08-30T08:03:05.521Z,18.67
2022-08-30T08:04:05.391Z,18.63
2022-08-30T08:05:05.511Z,18.57
2022-08-30T08:06:05.370Z,18.57
2022-08-30T08:07:05.370Z,18.70
2022-08-30T08:08:05.381Z,18.81
2022-08-30T08:09:05.328Z,18.90
2022-08-30T08:10:05.349Z,18.99
2022-08-30T08:11:05.531Z,19.00
2022-08-30T08:12:05.286Z,18.99
2022-08-30T08:13:05.309Z,19.07
2022-08-30T08:14:12.466Z,19.18
2022-08-30T08:15:08.892Z,19.22
2022-08-30T08:16:08.126Z,19.21
2022-08-30T08:17:05.221Z,19.26
2022-08-30T08:18:05.197Z,19.40
2022-08-30T08:19:05.199Z,19.54
2022-08-30T08:20:05.204Z,19.65
2022-08-30T08:21:05.186Z,19.73
2022-08-30T08:22:19.880Z,19.83
2022-08-30T08:23:06.155Z,19.87
2022-08-30T08:24:05.141Z,19.94
2022-08-30T08:25:05.145Z,19.88
2022-08-30T08:26:05.122Z,19.91
2022-08-30T08:27:05.148Z,19.80
2022-08-30T08:28:05.099Z,19.71
2022-08-30T08:29:05.089Z,19.66
2022-08-30T08:30:05.078Z,19.68
2022-08-30T08:31:05.106Z,19.63
2022-08-30T08:32:05.058Z,19.66
2022-08-30T08:33:05.048Z,19.68
2022-08-30T08:34:05.036Z,19.80
2022-08-30T08:35:05.026Z,19.84
2022-08-30T08:36:08.794Z,19.87
2022-08-30T08:37:05.018Z,19.83
2022-08-30T08:38:04.980Z,19.76
2022-08-30T08:39:04.984Z,19.81
2022-08-30T08:40:05.059Z,19.80
2022-08-30T08:41:04.958Z,19.86
2022-08-30T08:42:05.029Z,19.87
2022-08-30T08:43:04.940Z,19.88
2022-08-30T08:44:04.931Z,19.91
2022-08-30T08:45:10.171Z,19.92
2022-08-30T08:46:05.964Z,19.88
2022-08-30T08:47:04.893Z,19.84
2022-08-30T08:48:04.872Z,19.81
2022-08-30T08:49:04.883Z,19.73
2022-08-30T08:50:04.868Z,19.69
2022-08-30T08:51:04.848Z,19.78
2022-08-30T08:52:04.856Z,19.80
2022-08-30T08:53:04.831Z,19.76
2022-08-30T08:54:04.802Z,19.76
2022-08-30T08:55:04.812Z,19.84
2022-08-30T08:56:04.809Z,19.98
2022-08-30T08:57:04.814Z,20.11
2022-08-30T08:58:04.781Z,20.20
2022-08-30T08:59:04.757Z,20.33
2022-08-30T09:00:04.754Z,20.33
2022-08-30T09:01:04.856Z,20.33
2022-08-30T09:02:04.802Z,20.31
2022-08-30T09:03:04.724Z,20.38
2022-08-30T09:04:04.703Z,20.35
2022-08-30T09:05:04.730Z,20.29
2022-08-30T09:06:04.690Z,20.33
2022-08-30T09:07:04.707Z,20.35
2022-08-30T09:08:09.153Z,20.31
2022-08-30T09:09:05.646Z,20.23
2022-08-30T09:10:04.634Z,20.24
2022-08-30T09:11:04.626Z,20.29
2022-08-30T09:12:04.646Z,20.24
2022-08-30T09:13:04.979Z,20.31
2022-08-30T09:14:04.593Z,20.33
2022-08-30T09:15:04.579Z,20.36
2022-08-30T09:16:04.618Z,20.36
2022-08-30T09:17:04.558Z,20.38
2022-08-30T09:18:04.548Z,20.48
2022-08-30T09:19:04.539Z,20.62
2022-08-30T09:20:04.525Z,20.69
2022-08-30T09:21:04.551Z,20.76
2022-08-30T09:22:04.514Z,20.89
2022-08-30T09:23:04.503Z,20.99
2022-08-30T09:24:04.496Z,21.14
2022-08-30T09:25:04.694Z,21.25
2022-08-30T09:26:04.467Z,21.34
2022-08-30T09:27:04.448Z,21.32
2022-08-30T09:28:04.460Z,21.28
2022-08-30T09:29:04.440Z,21.29
2022-08-30T09:30:04.419Z,21.28
2022-08-30T09:31:05.995Z,21.27
2022-08-30T09:32:24.808Z,21.28
2022-08-30T09:33:05.395Z,21.31
2022-08-30T09:34:04.361Z,21.44
2022-08-30T09:35:04.369Z,21.47
2022-08-30T09:36:04.343Z,21.40
2022-08-30T09:37:04.665Z,21.29
2022-08-30T09:38:04.340Z,21.28
2022-08-30T09:39:04.332Z,21.25
2022-08-30T09:40:04.367Z,21.28
2022-08-30T09:41:04.298Z,21.22
2022-08-30T09:42:04.289Z,21.29
2022-08-30T09:43:04.281Z,21.40
2022-08-30T09:44:04.333Z,21.43
2022-08-30T09:45:04.270Z,21.52
2022-08-30T09:46:04.267Z,21.62
2022-08-30T09:47:04.249Z,21.64
2022-08-30T09:48:04.243Z,21.61
2022-08-30T09:49:04.227Z,21.67
2022-08-30T09:50:04.213Z,21.67
2022-08-30T09:51:04.221Z,21.71
2022-08-30T09:52:04.181Z,21.71
2022-08-30T09:53:04.171Z,21.83
2022-08-30T09:54:17.300Z,21.88
2022-08-30T09:55:05.141Z,21.98
2022-08-30T09:56:04.141Z,22.22
2022-08-30T09:57:04.117Z,22.35
2022-08-30T09:58:05.120Z,22.62
2022-08-30T09:59:04.093Z,22.92
2022-08-30T10:00:04.085Z,23.25
2022-08-30T10:01:04.193Z,23.40
2022-08-30T10:02:04.139Z,23.70
2022-08-30T10:03:04.047Z,23.98
2022-08-30T10:04:04.054Z,24.13
2022-08-30T10:05:04.031Z,24.25
2022-08-30T10:06:04.026Z,24.55
2022-08-30T10:07:04.018Z,24.99
2022-08-30T10:08:04.002Z,25.06
2022-08-30T10:09:04.004Z,25.36
2022-08-30T10:10:03.995Z,25.38
2022-08-30T10:11:03.972Z,25.51
2022-08-30T10:12:03.983Z,25.52
2022-08-30T10:13:03.923Z,25.58
2022-08-30T10:14:03.944Z,25.21
2022-08-30T10:15:04.122Z,25.02
2022-08-30T10:16:03.912Z,24.99
2022-08-30T10:17:03.908Z,25.09
2022-08-30T10:18:03.899Z,25.06
2022-08-30T10:19:04.313Z,25.09
2022-08-30T10:20:03.885Z,25.20
2022-08-30T10:21:03.857Z,25.21
2022-08-30T10:22:03.864Z,25.23
2022-08-30T10:23:03.834Z,25.23
2022-08-30T10:24:03.845Z,24.95
2022-08-30T10:25:03.826Z,24.77
2022-08-30T10:26:03.812Z,24.80
2022-08-30T10:27:03.824Z,24.65
2022-08-30T10:28:03.806Z,24.81
2022-08-30T10:29:03.791Z,24.87
2022-08-30T10:30:03.793Z,24.87
2022-08-30T10:31:03.748Z,24.73
2022-08-30T10:32:03.759Z,24.73
2022-08-30T10:33:03.725Z,24.78
2022-08-30T10:34:03.721Z,24.68
2022-08-30T10:35:03.715Z,24.62
2022-08-30T10:36:03.703Z,24.45
2022-08-30T10:37:03.695Z,24.15
2022-08-30T10:38:03.681Z,23.85
2022-08-30T10:39:03.657Z,23.76
2022-08-30T10:40:03.689Z,23.60
2022-08-30T10:41:03.649Z,23.60
2022-08-30T10:42:03.635Z,23.51
2022-08-30T10:43:03.623Z,23.60
2022-08-30T10:44:03.607Z,23.68
2022-08-30T10:45:03.603Z,23.70
2022-08-30T10:46:03.776Z,23.69
2022-08-30T10:47:03.576Z,23.72
2022-08-30T10:48:03.571Z,23.75
2022-08-30T10:49:03.553Z,23.91
2022-08-30T10:50:03.645Z,24.10
2022-08-30T10:51:03.551Z,24.16
2022-08-30T10:52:03.521Z,24.08
2022-08-30T10:53:03.512Z,24.09
2022-08-30T10:54:03.514Z,24.21
2022-08-30T10:55:03.489Z,24.34
2022-08-30T10:56:03.485Z,24.43
2022-08-30T10:57:03.469Z,24.49
2022-08-30T10:58:03.453Z,24.46
2022-08-30T10:59:03.455Z,24.27
2022-08-30T11:00:06.025Z,24.09
2022-08-30T11:01:03.471Z,23.87
2022-08-30T11:02:03.421Z,23.93
2022-08-30T11:03:03.404Z,23.97
2022-08-30T11:04:03.404Z,23.91
2022-08-30T11:05:03.386Z,23.87
2022-08-30T11:06:03.366Z,23.94
2022-08-30T11:07:05.850Z,24.03
2022-08-30T11:08:04.357Z,24.28
2022-08-30T11:09:03.335Z,24.49
2022-08-30T11:10:03.341Z,24.68
2022-08-30T11:11:03.304Z,24.53
2022-08-30T11:12:03.318Z,24.40
2022-08-30T11:13:03.296Z,24.42
2022-08-30T11:14:05.627Z,24.42
2022-08-30T11:15:03.263Z,24.52
2022-08-30T11:16:03.298Z,24.49
2022-08-30T11:17:03.480Z,24.43
2022-08-30T11:18:03.235Z,24.31
2022-08-30T11:19:03.238Z,24.49
2022-08-30T11:20:03.246Z,24.76
2022-08-30T11:21:03.228Z,24.83
2022-08-30T11:22:03.286Z,24.90
2022-08-30T11:23:03.210Z,24.90
2022-08-30T11:24:04.776Z,25.00
2022-08-30T11:25:03.182Z,25.02
2022-08-30T11:26:04.188Z,25.05
2022-08-30T11:27:03.160Z,25.00
2022-08-30T11:28:03.141Z,24.90
2022-08-30T11:29:03.111Z,25.03
2022-08-30T11:30:03.118Z,25.14
2022-08-30T11:31:03.120Z,25.18
2022-08-30T11:32:03.091Z,25.18
2022-08-30T11:33:03.091Z,25.36
2022-08-30T11:34:03.113Z,25.35
2022-08-30T11:35:03.075Z,25.30
2022-08-30T11:36:03.070Z,25.32
2022-08-30T11:37:03.057Z,25.24
2022-08-30T11:38:03.034Z,25.08
2022-08-30T11:39:03.033Z,25.15
2022-08-30T11:40:04.172Z,25.36
2022-08-30T11:41:03.015Z,25.54
2022-08-30T11:42:02.986Z,25.65
2022-08-30T11:43:02.987Z,25.57
2022-08-30T11:44:02.978Z,25.54
2022-08-30T11:45:02.979Z,25.62
2022-08-30T11:46:02.978Z,25.55
2022-08-30T11:47:02.967Z,25.55
2022-08-30T11:48:04.491Z,25.58
2022-08-30T11:49:02.929Z,25.58
2022-08-30T11:50:02.969Z,25.50
2022-08-30T11:51:03.909Z,25.55
2022-08-30T11:53:03.915Z,25.83
2022-08-30T11:54:02.875Z,25.65
2022-08-30T11:55:02.906Z,25.54
2022-08-30T11:56:02.849Z,25.61
2022-08-30T11:57:02.847Z,25.61
2022-08-30T11:58:02.834Z,25.85
2022-08-30T11:59:02.839Z,25.91
2022-08-30T12:00:02.801Z,25.76
2022-08-30T12:01:02.818Z,25.85
2022-08-30T12:02:02.925Z,25.82
2022-08-30T12:03:02.928Z,25.95
2022-08-30T12:04:02.771Z,26.10
2022-08-30T12:05:02.751Z,26.28
2022-08-30T12:06:02.758Z,26.33
2022-08-30T12:07:02.741Z,26.20
2022-08-30T12:08:02.754Z,26.18
2022-08-30T12:09:08.106Z,26.28
2022-08-30T12:10:03.705Z,26.30
2022-08-30T12:11:02.689Z,26.25
2022-08-30T12:12:02.711Z,26.43
2022-08-30T12:13:02.670Z,26.62
2022-08-30T12:14:02.664Z,26.88
2022-08-30T12:15:02.647Z,26.99
2022-08-30T12:16:02.813Z,26.85
2022-08-30T12:17:02.683Z,26.80
2022-08-30T12:18:02.958Z,26.95
2022-08-30T12:19:02.627Z,26.99
2022-08-30T12:20:02.603Z,27.18
2022-08-30T12:21:02.597Z,27.10
2022-08-30T12:22:02.596Z,27.13
2022-08-30T12:23:02.581Z,26.87
2022-08-30T12:24:03.772Z,26.81
2022-08-30T12:25:02.630Z,26.82
2022-08-30T12:26:02.540Z,26.97
2022-08-30T12:27:02.536Z,27.22
2022-08-30T12:28:02.538Z,27.49
2022-08-30T12:29:02.528Z,27.72
2022-08-30T12:30:02.489Z,27.81
2022-08-30T12:31:02.486Z,27.82
2022-08-30T12:32:03.390Z,27.79
2022-08-30T12:33:02.468Z,27.65
2022-08-30T12:34:02.448Z,27.40
2022-08-30T12:35:02.487Z,27.12
2022-08-30T12:36:02.431Z,26.94
2022-08-30T12:37:02.433Z,26.97
2022-08-30T12:38:02.436Z,27.02
2022-08-30T12:39:05.433Z,27.19
2022-08-30T12:40:02.484Z,27.18
2022-08-30T12:41:02.392Z,27.12
2022-08-30T12:42:02.373Z,27.25
2022-08-30T12:43:02.435Z,27.47
2022-08-30T12:44:02.375Z,27.43
2022-08-30T12:45:02.341Z,27.51
2022-08-30T12:46:07.509Z,27.63
2022-08-30T12:47:03.335Z,27.69
2022-08-30T12:48:02.325Z,27.62
2022-08-30T12:49:02.336Z,27.66
2022-08-30T12:50:02.341Z,27.79
2022-08-30T12:51:02.303Z,28.04
2022-08-30T12:52:02.295Z,28.00
2022-08-30T12:53:02.277Z,28.02